sensor_id;sensor_type;location;lat;lon;timestamp;pressure;altitude;pressure_sealevel;temperature;humidity
43818;BME280;29868;47.360;18.984;2023-10-09T00:00:13;62409.25;;;9.37;100.00
43818;BME280;29868;47.360;18.984;2023-10-09T00:02:57;62395.75;;;9.29;100.00
43818;BME280;29868;47.360;18.984;2023-10-09T00:05:29;62397.53;;;9.26;100.00
43818;BME280;29868;47.360;18.984;2023-10-09T00:08:14;62397.88;;;9.24;100.00
43818;BME280;29868;47.360;18.984;2023-10-09T00:10:59;62382.72;;;9.15;100.00
43818;BME280;29868;47.360;18.984;2023-10-09T00:13:38;62374.91;;;9.08;100.00
43818;BME280;29868;47.360;18.984;2023-10-09T00:16:11;62391.63;;;9.23;100.00
43818;BME280;29868;47.360;18.984;2023-10-09T00:18:39;62379.91;;;9.12;100.00
43818;BME280;29868;47.360;18.984;2023-10-09T00:21:14;62376.91;;;9.07;100.00
43818;BME280;29868;47.360;18.984;2023-10-09T00:23:41;62375.25;;;9.06;100.00
43818;BME280;29868;47.360;18.984;2023-10-09T00:26:07;62382.72;;;9.15;100.00
43818;BME280;29868;47.360;18.984;2023-10-09T00:28:39;62384.50;;;9.12;100.00
43818;BME280;29868;47.360;18.984;2023-10-09T00:31:11;62379.91;;;9.12;100.00
43818;BME280;29868;47.360;18.984;2023-10-09T00:33:44;62394.09;;;9.16;100.00
43818;BME280;29868;47.360;18.984;2023-10-09T00:36:10;62397.78;;;9.29;100.00
43818;BME280;29868;47.360;18.984;2023-10-09T00:38:38;62421.16;;;9.50;100.00
43818;BME280;29868;47.360;18.984;2023-10-09T00:41:15;62409.25;;;9.37;100.00
43818;BME280;29868;47.360;18.984;2023-10-09T00:43:50;62422.75;;;9.44;100.00
43818;BME280;29868;47.360;18.984;2023-10-09T00:46:19;62419.50;;;9.48;100.00
43818;BME280;29868;47.360;18.984;2023-10-09T00:48:53;62407.25;;;9.37;100.00
43818;BME280;29868;47.360;18.984;2023-10-09T00:51:19;62412.03;;;9.39;100.00
43818;BME280;29868;47.360;18.984;2023-10-09T00:53:49;62415.94;;;9.43;100.00
43818;BME280;29868;47.360;18.984;2023-10-09T00:56:17;62403.09;;;9.31;100.00
43818;BME280;29868;47.360;18.984;2023-10-09T00:59:07;62403.88;;;9.34;100.00
43818;BME280;29868;47.360;18.984;2023-10-09T01:01:45;62404.66;;;9.37;100.00
43818;BME280;29868;47.360;18.984;2023-10-09T01:04:24;62406.47;;;9.34;100.00
43818;BME280;29868;47.360;18.984;2023-10-09T01:06:51;62403.88;;;9.34;100.00
43818;BME280;29868;47.360;18.984;2023-10-09T01:09:36;62394.41;;;9.25;100.00
43818;BME280;29868;47.360;18.984;2023-10-09T01:12:03;62393.88;;;9.25;100.00
43818;BME280;29868;47.360;18.984;2023-10-09T01:14:30;62406.69;;;9.37;100.00
43818;BME280;29868;47.360;18.984;2023-10-09T01:17:01;62405.91;;;9.34;100.00
43818;BME280;29868;47.360;18.984;2023-10-09T01:19:27;62419.50;;;9.48;100.00
43818;BME280;29868;47.360;18.984;2023-10-09T01:21:54;62411.69;;;9.41;100.00
43818;BME280;29868;47.360;18.984;2023-10-09T01:24:20;62417.94;;;9.42;100.00
43818;BME280;29868;47.360;18.984;2023-10-09T01:26:46;62427.44;;;9.51;100.00
43818;BME280;29868;47.360;18.984;2023-10-09T01:29:14;62449.75;;;9.71;100.00
43818;BME280;29868;47.360;18.984;2023-10-09T01:34:18;62424.09;;;9.48;100.00
43818;BME280;29868;47.360;18.984;2023-10-09T01:36:44;62417.06;;;9.44;100.00
43818;BME280;29868;47.360;18.984;2023-10-09T01:39:14;62416.50;;;9.43;100.00
43818;BME280;29868;47.360;18.984;2023-10-09T01:41:52;62410.38;;;9.38;100.00
43818;BME280;29868;47.360;18.984;2023-10-09T01:44:25;62411.47;;;9.39;100.00
43818;BME280;29868;47.360;18.984;2023-10-09T01:47:00;62406.47;;;9.34;100.00
43818;BME280;29868;47.360;18.984;2023-10-09T01:49:33;62425.19;;;9.49;100.00
43818;BME280;29868;47.360;18.984;2023-10-09T01:52:00;62418.41;;;9.47;100.00
43818;BME280;29868;47.360;18.984;2023-10-09T01:54:33;62422.41;;;9.46;100.00
43818;BME280;29868;47.360;18.984;2023-10-09T01:57:02;62434.91;;;9.60;100.00
43818;BME280;29868;47.360;18.984;2023-10-09T01:59:34;62423.97;;;9.53;100.00
43818;BME280;29868;47.360;18.984;2023-10-09T02:02:04;62419.06;;;9.43;100.00
43818;BME280;29868;47.360;18.984;2023-10-09T02:04:37;62411.25;;;9.36;100.00
43818;BME280;29868;47.360;18.984;2023-10-09T02:07:05;62421.53;;;9.48;100.00
43818;BME280;29868;47.360;18.984;2023-10-09T02:09:33;62432.88;;;9.61;100.00
43818;BME280;29868;47.360;18.984;2023-10-09T02:12:00;62440.13;;;9.67;100.00
43818;BME280;29868;47.360;18.984;2023-10-09T02:14:26;62451.84;;;9.78;100.00
43818;BME280;29868;47.360;18.984;2023-10-09T02:16:52;62441.59;;;9.66;100.00
43818;BME280;29868;47.360;18.984;2023-10-09T02:19:46;62451.41;;;9.73;100.00
43818;BME280;29868;47.360;18.984;2023-10-09T02:22:15;62440.47;;;9.65;100.00
43818;BME280;29868;47.360;18.984;2023-10-09T02:24:43;62436.91;;;9.60;100.00
43818;BME280;29868;47.360;18.984;2023-10-09T02:27:16;62443.81;;;9.68;100.00
43818;BME280;29868;47.360;18.984;2023-10-09T02:29:48;62439.59;;;9.67;100.00
43818;BME280;29868;47.360;18.984;2023-10-09T02:32:13;62434.69;;;9.58;100.00
43818;BME280;29868;47.360;18.984;2023-10-09T02:34:51;62425.06;;;9.54;100.00
43818;BME280;29868;47.360;18.984;2023-10-09T02:37:20;62423.97;;;9.53;100.00
43818;BME280;29868;47.360;18.984;2023-10-09T02:39:49;62428.44;;;9.57;100.00
43818;BME280;29868;47.360;18.984;2023-10-09T02:42:18;62436.91;;;9.60;100.00
43818;BME280;29868;47.360;18.984;2023-10-09T02:44:49;62435.13;;;9.63;100.00
43818;BME280;29868;47.360;18.984;2023-10-09T02:47:19;62439.38;;;9.64;100.00
43818;BME280;29868;47.360;18.984;2023-10-09T02:49:49;62436.56;;;9.62;100.00
43818;BME280;29868;47.360;18.984;2023-10-09T02:52:16;62423.19;;;9.49;100.00
43818;BME280;29868;47.360;18.984;2023-10-09T02:54:47;62422.06;;;9.48;100.00
43818;BME280;29868;47.360;18.984;2023-10-09T02:57:13;62425.75;;;9.49;100.00
43818;BME280;29868;47.360;18.984;2023-10-09T02:59:48;62420.38;;;9.47;100.00
43818;BME280;29868;47.360;18.984;2023-10-09T03:02:19;62421.66;;;9.43;100.00
43818;BME280;29868;47.360;18.984;2023-10-09T03:04:45;62418.94;;;9.48;100.00
43818;BME280;29868;47.360;18.984;2023-10-09T03:07:10;62408.03;;;9.40;100.00
43818;BME280;29868;47.360;18.984;2023-10-09T03:09:39;62422.06;;;9.48;100.00
43818;BME280;29868;47.360;18.984;2023-10-09T03:12:06;62420.63;;;9.49;100.00
43818;BME280;29868;47.360;18.984;2023-10-09T03:14:36;62434.13;;;9.57;100.00
43818;BME280;29868;47.360;18.984;2023-10-09T03:17:04;62433.78;;;9.59;100.00
43818;BME280;29868;47.360;18.984;2023-10-09T03:19:33;62437.34;;;9.65;100.00
43818;BME280;29868;47.360;18.984;2023-10-09T03:22:03;62439.72;;;9.62;100.00
43818;BME280;29868;47.360;18.984;2023-10-09T03:24:29;62429.88;;;9.56;100.00
43818;BME280;29868;47.360;18.984;2023-10-09T03:26:56;62440.94;;;9.59;100.00
43818;BME280;29868;47.360;18.984;2023-10-09T03:29:22;62444.38;;;9.69;100.00
43818;BME280;29868;47.360;18.984;2023-10-09T03:31:47;62438.81;;;9.64;100.00
43818;BME280;29868;47.360;18.984;2023-10-09T03:34:16;62443.25;;;9.68;100.00
43818;BME280;29868;47.360;18.984;2023-10-09T03:36:45;62441.38;;;9.64;100.00
43818;BME280;29868;47.360;18.984;2023-10-09T03:39:10;62429.09;;;9.53;100.00
43818;BME280;29868;47.360;18.984;2023-10-09T03:41:56;62442.16;;;9.67;100.00
43818;BME280;29868;47.360;18.984;2023-10-09T03:44:24;62446.28;;;9.73;100.00
43818;BME280;29868;47.360;18.984;2023-10-09T03:46:50;62441.81;;;9.69;100.00
43818;BME280;29868;47.360;18.984;2023-10-09T03:49:16;62434.22;;;9.64;100.00
43818;BME280;29868;47.360;18.984;2023-10-09T03:51:48;62439.91;;;9.65;100.00
43818;BME280;29868;47.360;18.984;2023-10-09T03:54:15;62433.44;;;9.61;100.00
43818;BME280;29868;47.360;18.984;2023-10-09T03:56:40;62439.59;;;9.67;100.00
43818;BME280;29868;47.360;18.984;2023-10-09T03:59:06;62450.72;;;9.77;100.00
43818;BME280;29868;47.360;18.984;2023-10-09T04:01:36;62450.53;;;9.74;100.00
43818;BME280;29868;47.360;18.984;2023-10-09T04:04:05;62449.97;;;9.74;100.00
43818;BME280;29868;47.360;18.984;2023-10-09T04:06:32;62450.16;;;9.77;100.00
43818;BME280;29868;47.360;18.984;2023-10-09T04:09:00;62459.44;;;9.83;100.00
43818;BME280;29868;47.360;18.984;2023-10-09T04:11:38;62458.22;;;9.86;100.00
43818;BME280;29868;47.360;18.984;2023-10-09T04:14:08;62458.09;;;9.79;100.00
43818;BME280;29868;47.360;18.984;2023-10-09T04:16:37;62456.66;;;9.80;100.00
43818;BME280;29868;47.360;18.984;2023-10-09T04:19:16;62467.47;;;9.92;100.00
43818;BME280;29868;47.360;18.984;2023-10-09T04:21:47;62477.53;;;10.02;100.00
43818;BME280;29868;47.360;18.984;2023-10-09T04:24:13;62464.13;;;9.89;100.00
43818;BME280;29868;47.360;18.984;2023-10-09T04:26:44;62472.59;;;9.92;100.00
43818;BME280;29868;47.360;18.984;2023-10-09T04:29:16;62460.78;;;9.86;100.00
43818;BME280;29868;47.360;18.984;2023-10-09T04:32:14;62467.03;;;9.87;100.00
43818;BME280;29868;47.360;18.984;2023-10-09T04:34:43;62467.03;;;9.87;100.00
43818;BME280;29868;47.360;18.984;2023-10-09T04:37:15;62464.47;;;9.87;100.00
43818;BME280;29868;47.360;18.984;2023-10-09T04:39:41;62474.84;;;9.94;100.00
43818;BME280;29868;47.360;18.984;2023-10-09T04:42:16;62478.63;;;10.03;100.00
43818;BME280;29868;47.360;18.984;2023-10-09T04:44:50;62465.25;;;9.90;100.00
43818;BME280;29868;47.360;18.984;2023-10-09T04:47:26;62467.25;;;9.90;100.00
43818;BME280;29868;47.360;18.984;2023-10-09T04:50:10;62470.03;;;9.92;100.00
43818;BME280;29868;47.360;18.984;2023-10-09T04:52:54;62459.09;;;9.85;100.00
43818;BME280;29868;47.360;18.984;2023-10-09T04:55:19;62452.28;;;9.83;100.00
43818;BME280;29868;47.360;18.984;2023-10-09T04:57:50;62473.38;;;9.95;100.00
43818;BME280;29868;47.360;18.984;2023-10-09T05:00:34;62483.22;;;10.02;100.00
43818;BME280;29868;47.360;18.984;2023-10-09T05:03:01;62477.09;;;9.96;100.00
43818;BME280;29868;47.360;18.984;2023-10-09T05:05:36;62481.41;;;10.05;100.00
43818;BME280;29868;47.360;18.984;2023-10-09T05:08:08;62473.59;;;9.98;100.00
43818;BME280;29868;47.360;18.984;2023-10-09T05:10:50;62471.94;;;9.96;100.00
43818;BME280;29868;47.360;18.984;2023-10-09T05:13:29;62483.44;;;10.05;100.00
43818;BME280;29868;47.360;18.984;2023-10-09T05:18:41;62495.72;;;10.16;100.00
43818;BME280;29868;47.360;18.984;2023-10-09T05:21:07;62506.09;;;10.23;100.00
43818;BME280;29868;47.360;18.984;2023-10-09T05:23:41;62508.34;;;10.25;100.00
43818;BME280;29868;47.360;18.984;2023-10-09T05:26:17;62505.53;;;10.22;100.00
43818;BME280;29868;47.360;18.984;2023-10-09T05:29:01;62499.16;;;10.14;100.00
43818;BME280;29868;47.360;18.984;2023-10-09T05:31:44;62510.22;;;10.29;100.00
43818;BME280;29868;47.360;18.984;2023-10-09T05:34:28;62513.59;;;10.32;100.00
43818;BME280;29868;47.360;18.984;2023-10-09T05:37:07;62510.03;;;10.27;100.00
43818;BME280;29868;47.360;18.984;2023-10-09T05:39:46;62516.94;;;10.35;100.00
43818;BME280;29868;47.360;18.984;2023-10-09T05:42:28;62512.13;;;10.33;100.00
43818;BME280;29868;47.360;18.984;2023-10-09T05:45:17;62512.13;;;10.33;100.00
43818;BME280;29868;47.360;18.984;2023-10-09T05:47:53;62525.88;;;10.43;100.00
43818;BME280;29868;47.360;18.984;2023-10-09T05:50:24;62521.97;;;10.40;100.00
43818;BME280;29868;47.360;18.984;2023-10-09T05:52:51;62510.78;;;10.30;100.00
43818;BME280;29868;47.360;18.984;2023-10-09T05:55:17;62513.59;;;10.32;100.00
43818;BME280;29868;47.360;18.984;2023-10-09T05:58:01;62536.13;;;10.55;100.00
43818;BME280;29868;47.360;18.984;2023-10-09T06:00:45;62547.44;;;10.61;100.00
43818;BME280;29868;47.360;18.984;2023-10-09T06:03:29;62562.16;;;10.77;100.00
43818;BME280;29868;47.360;18.984;2023-10-09T06:06:14;62575.34;;;10.86;100.00
43818;BME280;29868;47.360;18.984;2023-10-09T06:08:58;62582.03;;;10.92;100.00
43818;BME280;29868;47.360;18.984;2023-10-09T06:11:43;62601.47;;;11.15;100.00
43818;BME280;29868;47.360;18.984;2023-10-09T06:14:28;62593.22;;;11.03;96.22
43818;BME280;29868;47.360;18.984;2023-10-09T06:16:54;62612.97;;;11.23;99.81
43818;BME280;29868;47.360;18.984;2023-10-09T06:19:22;62619.47;;;11.27;95.34
43818;BME280;29868;47.360;18.984;2023-10-09T06:21:48;62617.13;;;11.29;97.04
43818;BME280;29868;47.360;18.984;2023-10-09T06:24:32;62632.75;;;11.43;88.93
43818;BME280;29868;47.360;18.984;2023-10-09T06:27:16;62648.31;;;11.51;87.31
43818;BME280;29868;47.360;18.984;2023-10-09T06:30:01;62653.53;;;11.58;87.01
43818;BME280;29868;47.360;18.984;2023-10-09T06:32:45;62655.09;;;11.64;85.86
43818;BME280;29868;47.360;18.984;2023-10-09T06:35:24;62666.97;;;11.70;81.16
43818;BME280;29868;47.360;18.984;2023-10-09T06:38:00;62673.91;;;11.79;80.84
43818;BME280;29868;47.360;18.984;2023-10-09T06:40:29;62666.28;;;11.74;79.97
43818;BME280;29868;47.360;18.984;2023-10-09T06:43:13;62658.00;;;11.62;75.64
43818;BME280;29868;47.360;18.984;2023-10-09T06:45:45;62663.63;;;11.67;74.78
43818;BME280;29868;47.360;18.984;2023-10-09T06:48:11;62673.13;;;11.76;73.74
43818;BME280;29868;47.360;18.984;2023-10-09T06:51:10;62669.63;;;11.77;74.12
43818;BME280;29868;47.360;18.984;2023-10-09T06:53:51;62676.69;;;11.81;71.75
43818;BME280;29868;47.360;18.984;2023-10-09T06:56:23;62654.88;;;11.61;71.10
43818;BME280;29868;47.360;18.984;2023-10-09T06:58:55;62664.72;;;11.68;69.92
43818;BME280;29868;47.360;18.984;2023-10-09T07:01:23;62675.56;;;11.80;67.94
43818;BME280;29868;47.360;18.984;2023-10-09T07:04:07;62672.56;;;11.75;71.31
43818;BME280;29868;47.360;18.984;2023-10-09T07:06:47;62686.00;;;11.87;66.27
43818;BME280;29868;47.360;18.984;2023-10-09T07:09:13;62684.53;;;11.88;65.08
43818;BME280;29868;47.360;18.984;2023-10-09T07:11:39;62689.56;;;11.93;65.07
43818;BME280;29868;47.360;18.984;2023-10-09T07:17:03;62692.34;;;11.96;58.73
43818;BME280;29868;47.360;18.984;2023-10-09T07:19:42;62703.31;;;12.03;57.53
43818;BME280;29868;47.360;18.984;2023-10-09T07:22:08;62715.06;;;12.14;57.58
43818;BME280;29868;47.360;18.984;2023-10-09T07:24:49;62701.28;;;12.04;57.75
43818;BME280;29868;47.360;18.984;2023-10-09T07:27:22;62704.66;;;12.07;56.21
43818;BME280;29868;47.360;18.984;2023-10-09T07:30:07;62726.13;;;12.29;56.91
43818;BME280;29868;47.360;18.984;2023-10-09T07:33:03;62714.16;;;12.15;54.63
43818;BME280;29868;47.360;18.984;2023-10-09T07:35:34;62743.03;;;12.39;58.00
43818;BME280;29868;47.360;18.984;2023-10-09T07:38:16;62746.41;;;12.43;55.84
43818;BME280;29868;47.360;18.984;2023-10-09T07:40:50;62743.59;;;12.40;55.98
43818;BME280;29868;47.360;18.984;2023-10-09T07:43:28;62753.44;;;12.47;54.98
43818;BME280;29868;47.360;18.984;2023-10-09T07:46:02;62754.66;;;12.55;54.40
43818;BME280;29868;47.360;18.984;2023-10-09T07:48:31;62753.88;;;12.52;54.12
43818;BME280;29868;47.360;18.984;2023-10-09T07:51:21;62758.91;;;12.56;53.22
43818;BME280;29868;47.360;18.984;2023-10-09T07:53:56;62791.50;;;12.81;53.16
43818;BME280;29868;47.360;18.984;2023-10-09T07:56:25;62802.88;;;12.94;52.11
43818;BME280;29868;47.360;18.984;2023-10-09T07:58:55;62848.03;;;13.33;50.55
43818;BME280;29868;47.360;18.984;2023-10-09T08:01:25;62858.91;;;13.45;50.43
43818;BME280;29868;47.360;18.984;2023-10-09T08:04:01;62888.44;;;13.77;49.37
43818;BME280;29868;47.360;18.984;2023-10-09T08:06:41;62909.63;;;13.89;49.07
43818;BME280;29868;47.360;18.984;2023-10-09T08:09:10;62923.28;;;14.04;47.35
43818;BME280;29868;47.360;18.984;2023-10-09T08:11:46;62927.91;;;14.03;47.55
43818;BME280;29868;47.360;18.984;2023-10-09T08:14:13;62906.63;;;13.84;47.06
43818;BME280;29868;47.360;18.984;2023-10-09T08:16:49;62898.31;;;13.83;48.79
43818;BME280;29868;47.360;18.984;2023-10-09T08:19:17;62927.22;;;14.07;48.13
43818;BME280;29868;47.360;18.984;2023-10-09T08:22:00;62902.94;;;13.83;45.98
43818;BME280;29868;47.360;18.984;2023-10-09T08:24:44;62923.06;;;14.01;46.01
43818;BME280;29868;47.360;18.984;2023-10-09T08:27:18;62945.91;;;14.27;46.55
43818;BME280;29868;47.360;18.984;2023-10-09T08:30:02;62943.47;;;14.22;46.48
43818;BME280;29868;47.360;18.984;2023-10-09T08:32:46;62979.69;;;14.53;45.02
43818;BME280;29868;47.360;18.984;2023-10-09T08:35:50;62979.00;;;14.57;44.01
43818;BME280;29868;47.360;18.984;2023-10-09T08:38:17;62960.06;;;14.35;44.26
43818;BME280;29868;47.360;18.984;2023-10-09T08:40:50;62971.28;;;14.45;45.43
43818;BME280;29868;47.360;18.984;2023-10-09T08:43:20;62959.59;;;14.42;46.00
43818;BME280;29868;47.360;18.984;2023-10-09T08:45:48;62967.56;;;14.44;43.24
43818;BME280;29868;47.360;18.984;2023-10-09T08:48:14;62950.06;;;14.33;44.61
43818;BME280;29868;47.360;18.984;2023-10-09T08:50:47;62969.69;;;14.51;43.37
43818;BME280;29868;47.360;18.984;2023-10-09T08:53:13;62973.41;;;14.52;42.90
43818;BME280;29868;47.360;18.984;2023-10-09T08:55:40;62998.06;;;14.74;42.57
43818;BME280;29868;47.360;18.984;2023-10-09T08:58:07;63014.88;;;14.90;42.27
43818;BME280;29868;47.360;18.984;2023-10-09T09:00:43;63028.34;;;15.02;42.53
43818;BME280;29868;47.360;18.984;2023-10-09T09:03:12;63010.41;;;14.86;42.33
43818;BME280;29868;47.360;18.984;2023-10-09T09:05:37;63037.69;;;15.08;42.14
43818;BME280;29868;47.360;18.984;2023-10-09T09:08:03;63068.19;;;15.38;42.09
43818;BME280;29868;47.360;18.984;2023-10-09T09:10:29;63057.84;;;15.26;42.08
43818;BME280;29868;47.360;18.984;2023-10-09T09:13:03;63038.78;;;15.09;42.46
43818;BME280;29868;47.360;18.984;2023-10-09T09:15:30;63052.25;;;15.21;42.37
43818;BME280;29868;47.360;18.984;2023-10-09T09:18:06;63040.47;;;15.11;41.89
43818;BME280;29868;47.360;18.984;2023-10-09T09:20:32;63037.31;;;15.10;43.66
43818;BME280;29868;47.360;18.984;2023-10-09T09:23:02;63017.69;;;14.92;43.14
43818;BME280;29868;47.360;18.984;2023-10-09T09:25:46;63031.63;;;14.98;42.27
43818;BME280;29868;47.360;18.984;2023-10-09T09:28:16;63043.28;;;15.13;41.88
43818;BME280;29868;47.360;18.984;2023-10-09T09:30:47;63054.13;;;15.25;41.33
43818;BME280;29868;47.360;18.984;2023-10-09T09:33:26;63085.13;;;15.49;42.22
43818;BME280;29868;47.360;18.984;2023-10-09T09:36:02;63112.09;;;15.73;42.54
43818;BME280;29868;47.360;18.984;2023-10-09T09:38:30;63098.25;;;15.63;41.75
43818;BME280;29868;47.360;18.984;2023-10-09T09:41:13;63053.03;;;15.24;41.79
43818;BME280;29868;47.360;18.984;2023-10-09T09:43:53;63067.03;;;15.37;42.10
43818;BME280;29868;47.360;18.984;2023-10-09T09:46:24;63048.19;;;15.22;43.86
43818;BME280;29868;47.360;18.984;2023-10-09T09:49:01;63073.13;;;15.36;44.35
43818;BME280;29868;47.360;18.984;2023-10-09T09:51:30;63078.03;;;15.45;42.38
43818;BME280;29868;47.360;18.984;2023-10-09T09:53:55;63052.25;;;15.21;43.41
43818;BME280;29868;47.360;18.984;2023-10-09T09:56:24;63025.91;;;14.97;43.51
43818;BME280;29868;47.360;18.984;2023-10-09T09:58:50;63029.25;;;15.00;43.29
43818;BME280;29868;47.360;18.984;2023-10-09T10:01:25;63033.53;;;15.02;43.52
43818;BME280;29868;47.360;18.984;2023-10-09T10:04:11;63017.25;;;14.87;44.13
43818;BME280;29868;47.360;18.984;2023-10-09T10:06:40;63017.47;;;14.90;43.09
43818;BME280;29868;47.360;18.984;2023-10-09T10:09:10;63023.84;;;14.98;43.77
43818;BME280;29868;47.360;18.984;2023-10-09T10:11:43;63051.13;;;15.20;44.11
43818;BME280;29868;47.360;18.984;2023-10-09T10:14:10;63035.41;;;15.06;43.00
43818;BME280;29868;47.360;18.984;2023-10-09T10:17:01;63048.31;;;15.18;43.73
43818;BME280;29868;47.360;18.984;2023-10-09T10:22:25;63064.03;;;15.32;43.26
43818;BME280;29868;47.360;18.984;2023-10-09T10:24:56;63084.78;;;15.51;42.64
43818;BME280;29868;47.360;18.984;2023-10-09T10:27:26;63086.69;;;15.55;43.19
43818;BME280;29868;47.360;18.984;2023-10-09T10:35:20;63117.13;;;15.78;42.70
43818;BME280;29868;47.360;18.984;2023-10-09T10:38:00;63127.66;;;15.92;42.54
43818;BME280;29868;47.360;18.984;2023-10-09T10:40:36;63106.13;;;15.70;43.68
43818;BME280;29868;47.360;18.984;2023-10-09T10:43:17;63093.97;;;15.62;43.44
43818;BME280;29868;47.360;18.984;2023-10-09T10:46:06;63111.59;;;15.80;43.38
43818;BME280;29868;47.360;18.984;2023-10-09T10:49:01;63113.06;;;15.79;43.87
43818;BME280;29868;47.360;18.984;2023-10-09T10:51:39;63130.47;;;15.95;43.06
43818;BME280;29868;47.360;18.984;2023-10-09T10:54:05;63140.72;;;15.99;43.53
43818;BME280;29868;47.360;18.984;2023-10-09T10:56:49;63163.38;;;16.22;43.30
43818;BME280;29868;47.360;18.984;2023-10-09T10:59:15;63130.47;;;15.95;42.95
43818;BME280;29868;47.360;18.984;2023-10-09T11:01:48;63165.97;;;16.22;42.88
43818;BME280;29868;47.360;18.984;2023-10-09T11:04:40;63209.00;;;16.59;43.06
43818;BME280;29868;47.360;18.984;2023-10-09T11:07:09;63189.44;;;16.48;41.52
43818;BME280;29868;47.360;18.984;2023-10-09T11:09:49;63221.00;;;16.72;40.96
43818;BME280;29868;47.360;18.984;2023-10-09T11:15:09;63282.13;;;17.33;40.84
43818;BME280;29868;47.360;18.984;2023-10-09T11:18:05;63303.84;;;17.50;41.04
43818;BME280;29868;47.360;18.984;2023-10-09T11:20:36;63310.59;;;17.56;41.13
43818;BME280;29868;47.360;18.984;2023-10-09T11:23:03;63325.22;;;17.69;40.55
43818;BME280;29868;47.360;18.984;2023-10-09T11:25:36;63374.50;;;18.12;39.93
43818;BME280;29868;47.360;18.984;2023-10-09T11:28:22;63355.03;;;17.96;39.50
43818;BME280;29868;47.360;18.984;2023-10-09T11:31:11;63326.91;;;17.71;40.71
43818;BME280;29868;47.360;18.984;2023-10-09T11:33:43;63338.16;;;17.81;40.56
43818;BME280;29868;47.360;18.984;2023-10-09T11:36:09;63351.09;;;17.93;40.79
43818;BME280;29868;47.360;18.984;2023-10-09T11:38:36;63387.66;;;18.26;40.41
43818;BME280;29868;47.360;18.984;2023-10-09T11:41:12;63368.88;;;18.07;39.55
43818;BME280;29868;47.360;18.984;2023-10-09T11:43:51;63400.94;;;18.36;40.45
43818;BME280;29868;47.360;18.984;2023-10-09T11:46:18;63412.97;;;18.49;39.87
43818;BME280;29868;47.360;18.984;2023-10-09T11:49:07;63405.44;;;18.40;39.99
43818;BME280;29868;47.360;18.984;2023-10-09T11:51:45;63424.38;;;18.55;40.27
43818;BME280;29868;47.360;18.984;2023-10-09T11:54:30;63438.09;;;18.69;39.89
43818;BME280;29868;47.360;18.984;2023-10-09T11:57:00;63429.09;;;18.61;39.75
43818;BME280;29868;47.360;18.984;2023-10-09T11:59:29;63446.41;;;18.82;40.85
43818;BME280;29868;47.360;18.984;2023-10-09T12:02:04;63460.06;;;18.89;39.97
43818;BME280;29868;47.360;18.984;2023-10-09T12:04:29;63438.31;;;18.72;41.34
43818;BME280;29868;47.360;18.984;2023-10-09T12:06:58;63447.88;;;18.81;42.32
43818;BME280;29868;47.360;18.984;2023-10-09T12:09:32;63470.75;;;18.99;40.74
43818;BME280;29868;47.360;18.984;2023-10-09T12:12:02;63461.75;;;18.91;41.83
43818;BME280;29868;47.360;18.984;2023-10-09T12:14:28;63452.38;;;18.85;42.30
43818;BME280;29868;47.360;18.984;2023-10-09T12:17:01;63463.28;;;18.97;42.10
43818;BME280;29868;47.360;18.984;2023-10-09T12:19:37;63448.44;;;18.81;41.71
43818;BME280;29868;47.360;18.984;2023-10-09T12:22:07;63450.72;;;18.83;44.22
43818;BME280;29868;47.360;18.984;2023-10-09T12:24:36;63450.16;;;18.83;43.46
43818;BME280;29868;47.360;18.984;2023-10-09T12:27:03;63433.22;;;18.67;43.81
43818;BME280;29868;47.360;18.984;2023-10-09T12:29:35;63454.06;;;18.86;43.96
43818;BME280;29868;47.360;18.984;2023-10-09T12:32:00;63489.34;;;19.16;44.43
43818;BME280;29868;47.360;18.984;2023-10-09T12:34:26;63503.06;;;19.31;42.90
43818;BME280;29868;47.360;18.984;2023-10-09T12:36:57;63510.38;;;19.37;44.14
43818;BME280;29868;47.360;18.984;2023-10-09T12:39:32;63474.91;;;19.05;44.42
43818;BME280;29868;47.360;18.984;2023-10-09T12:42:05;63492.94;;;19.22;44.68
43818;BME280;29868;47.360;18.984;2023-10-09T12:44:34;63467.59;;;18.99;45.37
43818;BME280;29868;47.360;18.984;2023-10-09T12:47:05;63460.28;;;18.92;45.03
43818;BME280;29868;47.360;18.984;2023-10-09T12:49:31;63453.50;;;18.86;44.03
43818;BME280;29868;47.360;18.984;2023-10-09T12:51:56;63476.59;;;19.07;44.71
43818;BME280;29868;47.360;18.984;2023-10-09T12:54:24;63481.66;;;19.11;46.14
43818;BME280;29868;47.360;18.984;2023-10-09T12:56:52;63489.53;;;19.18;46.17
43818;BME280;29868;47.360;18.984;2023-10-09T12:59:18;63498.16;;;19.22;46.04
43818;BME280;29868;47.360;18.984;2023-10-09T13:01:45;63469.84;;;19.01;45.45
43818;BME280;29868;47.360;18.984;2023-10-09T13:04:12;63518.06;;;19.42;46.63
43818;BME280;29868;47.360;18.984;2023-10-09T13:06:41;63543.63;;;19.67;47.45
43818;BME280;29868;47.360;18.984;2023-10-09T13:09:14;63539.03;;;19.56;46.16
43818;BME280;29868;47.360;18.984;2023-10-09T13:11:43;63508.28;;;19.31;47.35
43818;BME280;29868;47.360;18.984;2023-10-09T13:14:10;63491.22;;;19.20;48.67
43818;BME280;29868;47.360;18.984;2023-10-09T13:16:47;63481.66;;;19.11;51.00
43818;BME280;29868;47.360;18.984;2023-10-09T13:19:15;63472.66;;;19.03;51.36
43818;BME280;29868;47.360;18.984;2023-10-09T13:21:42;63490.66;;;19.19;55.44
43818;BME280;29868;47.360;18.984;2023-10-09T13:24:08;63482.78;;;19.12;53.09
43818;BME280;29868;47.360;18.984;2023-10-09T13:26:44;63464.44;;;18.98;55.62
43818;BME280;29868;47.360;18.984;2023-10-09T13:29:16;63483.34;;;19.13;54.54
43818;BME280;29868;47.360;18.984;2023-10-09T13:31:47;63473.59;;;19.02;56.20
43818;BME280;29868;47.360;18.984;2023-10-09T13:34:13;63467.03;;;18.98;56.17
43818;BME280;29868;47.360;18.984;2023-10-09T13:36:42;63457.66;;;18.92;57.46
43818;BME280;29868;47.360;18.984;2023-10-09T13:39:23;63413.31;;;18.47;59.00